createdAt,value
2017-03-31T00:01:03.037Z,10.43
2017-03-31T00:02:15.567Z,10.41
2017-03-31T00:03:28.332Z,10.46
2017-03-31T00:04:40.873Z,10.46
2017-03-31T00:05:52.524Z,10.39
2017-03-31T00:07:05.023Z,10.39
2017-03-31T00:08:17.589Z,10.33
2017-03-31T00:09:30.136Z,10.33
2017-03-31T00:10:42.682Z,10.34
2017-03-31T00:11:54.898Z,10.41
2017-03-31T00:13:07.424Z,10.34
2017-03-31T00:14:19.347Z,10.33
2017-03-31T00:15:31.251Z,10.34
2017-03-31T00:16:43.782Z,10.3
2017-03-31T00:17:56.039Z,10.31
2017-03-31T00:19:08.587Z,10.3
2017-03-31T00:20:21.128Z,10.27
2017-03-31T00:21:33.641Z,10.28
2017-03-31T00:22:45.586Z,10.28
2017-03-31T00:23:57.844Z,10.3
2017-03-31T00:25:10.364Z,10.24
2017-03-31T00:26:22.883Z,10.28
2017-03-31T00:27:35.404Z,10.12
2017-03-31T00:28:47.620Z,10.2
2017-03-31T00:29:59.850Z,10.12
2017-03-31T00:31:12.094Z,10.15
2017-03-31T00:32:24.314Z,10.18
2017-03-31T00:33:36.883Z,10.15
2017-03-31T00:34:49.108Z,10.15
2017-03-31T00:36:01.045Z,10.15
2017-03-31T00:37:13.548Z,10.13
2017-03-31T00:38:25.484Z,10.15
2017-03-31T00:39:38.013Z,10.07
2017-03-31T00:40:50.586Z,10.07
2017-03-31T00:42:03.131Z,10.18
2017-03-31T00:43:15.375Z,9.97
2017-03-31T00:44:27.917Z,9.95
2017-03-31T00:45:40.470Z,9.97
2017-03-31T00:46:52.713Z,9.97
2017-03-31T00:48:05.251Z,10.02
2017-03-31T00:49:17.482Z,10
2017-03-31T00:50:29.978Z,10.03
2017-03-31T00:51:42.492Z,10
2017-03-31T00:52:55.268Z,9.91
2017-03-31T00:54:07.506Z,9.9
2017-03-31T00:55:20.054Z,9.87
2017-03-31T00:56:32.281Z,9.88
2017-03-31T00:57:44.494Z,9.9
2017-03-31T00:58:57.047Z,9.9
2017-03-31T01:00:09.547Z,9.85
2017-03-31T01:01:21.813Z,9.9
2017-03-31T01:02:34.013Z,9.84
2017-03-31T01:03:46.534Z,9.91
2017-03-31T01:04:58.457Z,9.87
2017-03-31T01:06:10.974Z,9.85
2017-03-31T01:07:23.504Z,9.81
2017-03-31T01:08:36.368Z,9.8
2017-03-31T01:09:48.634Z,9.81
2017-03-31T01:11:00.898Z,9.82
2017-03-31T01:12:13.407Z,9.81
2017-03-31T01:13:25.623Z,9.81
2017-03-31T01:14:38.143Z,9.81
2017-03-31T01:15:50.364Z,9.77
2017-03-31T01:17:02.890Z,9.8
2017-03-31T01:18:15.432Z,9.74
2017-03-31T01:19:27.677Z,9.8
2017-03-31T01:20:40.199Z,9.76
2017-03-31T01:21:52.737Z,9.77
2017-03-31T01:23:05.249Z,9.77
2017-03-31T01:24:17.779Z,9.69
2017-03-31T01:25:30.033Z,9.74
2017-03-31T01:26:42.556Z,9.74
2017-03-31T01:27:54.795Z,9.73
2017-03-31T01:29:07.316Z,9.73
2017-03-31T01:30:19.912Z,9.73
2017-03-31T01:31:32.467Z,9.77
2017-03-31T01:32:45.014Z,9.76
2017-03-31T01:33:57.571Z,9.66
2017-03-31T01:35:10.117Z,9.7
2017-03-31T01:36:22.618Z,9.73
2017-03-31T01:37:34.841Z,9.64
2017-03-31T01:38:47.365Z,9.64
2017-03-31T01:39:59.901Z,9.59
2017-03-31T01:41:12.460Z,9.59
2017-03-31T01:42:24.710Z,9.67
2017-03-31T01:43:37.242Z,9.59
2017-03-31T01:44:49.769Z,9.63
2017-03-31T01:46:02.309Z,9.66
2017-03-31T01:47:14.905Z,9.56
2017-03-31T01:48:27.425Z,9.51
2017-03-31T01:49:39.943Z,9.54
2017-03-31T01:50:52.465Z,9.52
2017-03-31T01:52:05.009Z,9.48
2017-03-31T01:53:17.558Z,9.48
2017-03-31T01:54:29.802Z,9.48
2017-03-31T01:55:42.332Z,9.48
2017-03-31T01:56:54.875Z,9.48
2017-03-31T01:58:07.413Z,9.49
2017-03-31T01:59:19.661Z,9.45
2017-03-31T02:00:31.907Z,9.44
2017-03-31T02:01:44.431Z,9.36
2017-03-31T02:02:56.673Z,9.3
2017-03-31T02:04:08.973Z,9.36
2017-03-31T02:05:21.515Z,9.34
2017-03-31T02:06:33.743Z,9.3
2017-03-31T02:07:46.269Z,9.3
2017-03-31T02:08:58.203Z,9.37
2017-03-31T02:10:10.427Z,9.34
2017-03-31T02:11:22.675Z,9.29
2017-03-31T02:12:35.173Z,9.29
2017-03-31T02:13:47.723Z,9.27
2017-03-31T02:15:00.273Z,9.22
2017-03-31T02:16:12.815Z,9.3
2017-03-31T02:17:24.757Z,9.19
2017-03-31T02:18:37.270Z,9.22
2017-03-31T02:19:49.774Z,9.18
2017-03-31T02:21:02.316Z,9.19
2017-03-31T02:22:14.844Z,9.16
2017-03-31T02:23:27.378Z,9.09
2017-03-31T02:24:39.885Z,9.15
2017-03-31T02:25:52.128Z,9.19
2017-03-31T02:27:03.770Z,9.19
2017-03-31T02:28:16.263Z,9.12
2017-03-31T02:29:28.770Z,9.08
2017-03-31T02:30:41.019Z,9.13
2017-03-31T02:31:53.566Z,9.09
2017-03-31T02:33:06.100Z,9.08
2017-03-31T02:34:18.629Z,9.02
2017-03-31T02:35:31.146Z,9.02
2017-03-31T02:36:43.387Z,9.02
2017-03-31T02:37:55.907Z,9.09
2017-03-31T02:39:07.826Z,9.03
2017-03-31T02:40:20.059Z,8.97
2017-03-31T02:41:32.579Z,8.9
2017-03-31T02:42:45.121Z,9
2017-03-31T02:43:57.338Z,8.87
2017-03-31T02:45:09.569Z,8.86
2017-03-31T02:46:22.350Z,8.9
2017-03-31T02:47:34.875Z,8.87
2017-03-31T02:48:47.418Z,8.78
2017-03-31T02:49:59.964Z,8.89
2017-03-31T02:51:12.515Z,8.78
2017-03-31T02:52:24.764Z,8.79
2017-03-31T02:53:36.979Z,8.82
2017-03-31T02:54:49.201Z,8.82
2017-03-31T02:56:01.732Z,8.81
2017-03-31T02:57:14.264Z,8.78
2017-03-31T02:58:26.509Z,8.84
2017-03-31T02:59:38.741Z,8.78
2017-03-31T03:00:50.959Z,8.79
2017-03-31T03:02:03.486Z,8.77
2017-03-31T03:03:16.028Z,8.75
2017-03-31T03:04:28.539Z,8.69
2017-03-31T03:05:40.771Z,8.68
2017-03-31T03:06:53.006Z,8.75
2017-03-31T03:08:05.535Z,8.74
2017-03-31T03:09:17.732Z,8.72
2017-03-31T03:10:30.272Z,8.59
2017-03-31T03:11:42.802Z,8.74
2017-03-31T03:12:55.043Z,8.63
2017-03-31T03:14:07.570Z,8.66
2017-03-31T03:15:20.089Z,8.69
2017-03-31T03:16:32.627Z,8.66
2017-03-31T03:17:45.145Z,8.6
2017-03-31T03:18:57.673Z,8.6
2017-03-31T03:20:10.197Z,8.59
2017-03-31T03:21:22.732Z,8.59
2017-03-31T03:22:35.265Z,8.56
2017-03-31T03:23:47.824Z,8.56
2017-03-31T03:25:00.348Z,8.56
2017-03-31T03:26:12.873Z,8.57
2017-03-31T03:27:25.122Z,8.5
2017-03-31T03:28:37.686Z,8.54
2017-03-31T03:29:50.462Z,8.56
2017-03-31T03:31:02.957Z,8.54
2017-03-31T03:32:15.480Z,8.46
2017-03-31T03:33:27.706Z,8.52
2017-03-31T03:34:40.244Z,8.56
2017-03-31T03:35:52.790Z,8.46
2017-03-31T03:37:05.333Z,8.41
2017-03-31T03:38:17.559Z,8.53
2017-03-31T03:39:30.082Z,8.46
2017-03-31T03:40:42.600Z,8.44
2017-03-31T03:41:55.120Z,8.46
2017-03-31T03:43:07.658Z,8.45
2017-03-31T03:44:20.190Z,8.35
2017-03-31T03:45:32.733Z,8.35
2017-03-31T03:46:45.283Z,8.39
2017-03-31T03:47:57.828Z,8.41
2017-03-31T03:49:10.050Z,8.39
2017-03-31T03:50:22.286Z,8.39
2017-03-31T03:51:34.515Z,8.44
2017-03-31T03:52:46.729Z,8.42
2017-03-31T03:53:58.935Z,8.44
2017-03-31T03:55:11.425Z,8.38
2017-03-31T03:56:23.968Z,8.44
2017-03-31T03:57:36.516Z,8.34
2017-03-31T03:58:49.065Z,8.42
2017-03-31T04:00:01.004Z,8.32
2017-03-31T04:01:13.247Z,8.35
2017-03-31T04:02:25.800Z,8.31
2017-03-31T04:03:38.322Z,8.41
2017-03-31T04:04:50.847Z,8.34
2017-03-31T04:06:03.406Z,8.27
2017-03-31T04:07:15.929Z,8.36
2017-03-31T04:08:28.451Z,8.27
2017-03-31T04:09:40.957Z,8.34
2017-03-31T04:10:53.482Z,8.26
2017-03-31T04:12:06.022Z,8.27
2017-03-31T04:13:18.568Z,8.26
2017-03-31T04:14:30.813Z,8.28
2017-03-31T04:15:42.748Z,8.28
2017-03-31T04:16:55.273Z,8.26
2017-03-31T04:18:07.806Z,8.31
2017-03-31T04:19:20.346Z,8.32
2017-03-31T04:20:32.635Z,8.27
2017-03-31T04:21:45.185Z,8.34
2017-03-31T04:22:57.707Z,8.32
2017-03-31T04:24:10.230Z,8.23
2017-03-31T04:25:22.465Z,8.24
2017-03-31T04:26:34.673Z,8.28
2017-03-31T04:27:47.182Z,8.28
2017-03-31T04:28:59.728Z,8.34
2017-03-31T04:30:11.932Z,8.24
2017-03-31T04:31:24.460Z,8.28
2017-03-31T04:32:37.002Z,8.28
2017-03-31T04:33:49.540Z,8.26
2017-03-31T04:35:02.340Z,8.24
2017-03-31T04:36:14.878Z,8.28
2017-03-31T04:37:27.107Z,8.28
2017-03-31T04:38:39.599Z,8.28
2017-03-31T04:39:52.119Z,8.24
2017-03-31T04:41:04.341Z,8.31
2017-03-31T04:42:16.895Z,8.32
2017-03-31T04:43:29.132Z,8.26
2017-03-31T04:44:41.353Z,8.27
2017-03-31T04:45:53.555Z,8.27
2017-03-31T04:47:05.820Z,8.27
2017-03-31T04:48:18.361Z,8.26
2017-03-31T04:49:30.598Z,8.27
2017-03-31T04:50:43.129Z,8.17
2017-03-31T04:51:55.640Z,8.31
2017-03-31T04:53:08.171Z,8.17
2017-03-31T04:54:20.392Z,8.28
2017-03-31T04:55:32.904Z,8.31
2017-03-31T04:56:45.437Z,8.27
2017-03-31T04:57:57.692Z,8.27
2017-03-31T04:59:10.229Z,8.27
2017-03-31T05:00:22.784Z,8.24
2017-03-31T05:01:35.337Z,8.26
2017-03-31T05:02:47.876Z,8.27
2017-03-31T05:04:00.395Z,8.24
2017-03-31T05:05:12.938Z,8.26
2017-03-31T05:06:25.480Z,8.32
2017-03-31T05:07:38.251Z,8.27
2017-03-31T05:08:50.482Z,8.27
2017-03-31T05:10:03.001Z,8.41
2017-03-31T05:11:15.235Z,8.45
2017-03-31T05:12:27.759Z,8.36
2017-03-31T05:13:40.280Z,8.41
2017-03-31T05:14:52.801Z,8.42
2017-03-31T05:16:05.043Z,8.42
2017-03-31T05:17:17.590Z,8.5
2017-03-31T05:18:30.388Z,8.42
2017-03-31T05:19:42.615Z,8.44
2017-03-31T05:20:54.229Z,8.52
2017-03-31T05:22:06.477Z,8.56
2017-03-31T05:23:19.021Z,8.54
2017-03-31T05:24:31.552Z,8.57
2017-03-31T05:25:44.070Z,8.54
2017-03-31T05:26:56.581Z,8.61
2017-03-31T05:28:09.107Z,8.53
2017-03-31T05:29:21.659Z,8.52
2017-03-31T05:30:34.220Z,8.66
2017-03-31T05:31:46.752Z,8.72
2017-03-31T05:32:58.997Z,8.66
2017-03-31T05:34:11.223Z,8.72
2017-03-31T05:35:23.756Z,8.72
2017-03-31T05:36:35.984Z,8.72
2017-03-31T05:37:48.506Z,8.77
2017-03-31T05:39:00.729Z,8.82
2017-03-31T05:40:12.965Z,8.81
2017-03-31T05:41:25.211Z,8.78
2017-03-31T05:42:37.757Z,8.89
2017-03-31T05:43:50.307Z,8.9
2017-03-31T05:45:02.531Z,8.95
2017-03-31T05:46:15.055Z,8.95
2017-03-31T05:47:27.591Z,8.95
2017-03-31T05:48:39.837Z,8.96
2017-03-31T05:49:51.766Z,9.12
2017-03-31T05:51:03.700Z,9.11
2017-03-31T05:52:16.248Z,9.16
2017-03-31T05:53:28.476Z,9.18
2017-03-31T05:54:40.713Z,9.18
2017-03-31T05:55:52.962Z,9.26
2017-03-31T05:57:05.494Z,9.31
2017-03-31T05:58:18.040Z,9.27
2017-03-31T05:59:30.584Z,9.31
2017-03-31T06:00:43.121Z,9.34
2017-03-31T06:01:55.924Z,9.36
2017-03-31T06:03:08.487Z,9.44
2017-03-31T06:04:20.708Z,9.52
2017-03-31T06:05:33.226Z,9.49
2017-03-31T06:06:45.758Z,9.48
2017-03-31T06:07:58.000Z,9.58
2017-03-31T06:09:10.514Z,9.63
2017-03-31T06:10:23.063Z,9.7
2017-03-31T06:11:35.605Z,9.8
2017-03-31T06:12:47.876Z,9.67
2017-03-31T06:14:00.433Z,9.8
2017-03-31T06:15:12.954Z,9.8
2017-03-31T06:16:25.472Z,9.85
2017-03-31T06:17:37.970Z,9.92
2017-03-31T06:18:50.484Z,9.85
2017-03-31T06:20:03.009Z,9.92
2017-03-31T06:21:15.251Z,10.03
2017-03-31T06:22:27.497Z,10
2017-03-31T06:23:40.017Z,10.05
2017-03-31T06:24:51.943Z,9.97
2017-03-31T06:26:04.468Z,10.13
2017-03-31T06:27:17.002Z,10.17
2017-03-31T06:28:29.551Z,10.13
2017-03-31T06:29:42.098Z,10.12
2017-03-31T06:30:54.622Z,10.23
2017-03-31T06:32:07.142Z,10.24
2017-03-31T06:33:19.384Z,10.28
2017-03-31T06:34:31.932Z,10.38
2017-03-31T06:35:43.877Z,10.33
2017-03-31T06:36:56.108Z,10.41
2017-03-31T06:38:08.353Z,10.42
2017-03-31T06:39:20.275Z,10.46
2017-03-31T06:40:32.435Z,10.48
2017-03-31T06:41:44.381Z,10.59
2017-03-31T06:42:56.302Z,10.67
2017-03-31T06:44:08.848Z,10.67
2017-03-31T06:45:21.069Z,10.69
2017-03-31T06:46:33.599Z,10.71
2017-03-31T06:47:46.115Z,10.79
2017-03-31T06:48:58.640Z,10.8
2017-03-31T06:50:11.162Z,10.89
2017-03-31T06:51:23.405Z,10.98
2017-03-31T06:52:35.349Z,10.95
2017-03-31T06:53:47.298Z,11.02
2017-03-31T06:54:59.842Z,11.15
2017-03-31T06:56:12.358Z,11.2
2017-03-31T06:57:24.900Z,11.27
2017-03-31T06:58:37.129Z,11.26
2017-03-31T06:59:49.667Z,11.4
2017-03-31T07:01:01.921Z,11.45
2017-03-31T07:02:14.434Z,11.67
2017-03-31T07:03:26.383Z,11.73
2017-03-31T07:04:38.629Z,11.85
2017-03-31T07:05:51.175Z,12.05
2017-03-31T07:07:03.700Z,12.26
2017-03-31T07:08:16.227Z,12.39
2017-03-31T07:09:28.460Z,12.57
2017-03-31T07:10:40.684Z,12.65
2017-03-31T07:11:53.213Z,12.76
2017-03-31T07:13:05.451Z,12.8
2017-03-31T07:14:17.993Z,12.94
2017-03-31T07:15:29.607Z,13.05
2017-03-31T07:16:42.139Z,13.16
2017-03-31T07:17:54.388Z,13.27
2017-03-31T07:19:06.936Z,13.31
2017-03-31T07:20:19.439Z,13.47
2017-03-31T07:21:31.997Z,13.57
2017-03-31T07:22:44.522Z,13.75
2017-03-31T07:23:56.781Z,13.82
2017-03-31T07:25:09.343Z,13.89
2017-03-31T07:26:21.890Z,14
2017-03-31T07:27:34.434Z,14.08
2017-03-31T07:28:46.972Z,14.13
2017-03-31T07:29:58.623Z,14.4
2017-03-31T07:31:10.536Z,14.45
2017-03-31T07:32:23.093Z,14.56
2017-03-31T07:33:35.335Z,14.55
2017-03-31T07:34:47.877Z,14.68
2017-03-31T07:36:00.424Z,14.71
2017-03-31T07:37:12.969Z,14.86
2017-03-31T07:38:25.494Z,15.02
2017-03-31T07:39:37.733Z,15.08
2017-03-31T07:40:50.285Z,15.07
2017-03-31T07:42:02.278Z,15.35
2017-03-31T07:43:14.824Z,15.44
2017-03-31T07:44:27.370Z,15.72
2017-03-31T07:45:39.898Z,15.84
2017-03-31T07:46:52.416Z,16.17
2017-03-31T07:48:04.659Z,16.36
2017-03-31T07:49:17.184Z,16.43
2017-03-31T07:50:29.424Z,16.74
2017-03-31T07:51:41.677Z,16.89
2017-03-31T07:52:53.923Z,16.99
2017-03-31T07:54:06.169Z,16.98
2017-03-31T07:55:18.712Z,17.1
2017-03-31T07:56:31.240Z,17.13
2017-03-31T07:57:43.778Z,17.16
2017-03-31T07:58:56.316Z,17.1
2017-03-31T08:00:08.541Z,17.13
2017-03-31T08:01:20.820Z,17.13
2017-03-31T08:02:33.359Z,17.04
2017-03-31T08:03:45.904Z,17.01
2017-03-31T08:04:58.154Z,16.99
2017-03-31T08:06:10.702Z,17.04
2017-03-31T08:07:22.963Z,17.04
2017-03-31T08:08:35.492Z,17.05
2017-03-31T08:09:47.717Z,17.04
2017-03-31T08:10:59.979Z,17.12
2017-03-31T08:12:12.534Z,17.12
2017-03-31T08:13:24.804Z,17.01
2017-03-31T08:14:37.067Z,17.13
2017-03-31T08:15:49.339Z,17.09
2017-03-31T08:17:01.555Z,17.04
2017-03-31T08:18:14.088Z,17.14
2017-03-31T08:19:26.023Z,17.16
2017-03-31T08:20:38.574Z,17.23
2017-03-31T08:21:51.094Z,17.24
2017-03-31T08:23:03.637Z,17.27
2017-03-31T08:24:15.864Z,17.3
2017-03-31T08:25:28.077Z,17.32
2017-03-31T08:26:40.330Z,17.31
2017-03-31T08:27:52.869Z,17.34
2017-03-31T08:29:05.119Z,17.38
2017-03-31T08:30:17.664Z,17.42
2017-03-31T08:31:30.211Z,17.42
2017-03-31T08:32:42.454Z,17.38
2017-03-31T08:33:54.985Z,17.52
2017-03-31T08:35:07.229Z,17.56
2017-03-31T08:36:19.773Z,17.52
2017-03-31T08:37:32.011Z,17.56
2017-03-31T08:38:44.272Z,17.52
2017-03-31T08:39:56.813Z,17.53
2017-03-31T08:41:08.749Z,17.63
2017-03-31T08:42:20.953Z,17.6
2017-03-31T08:43:33.194Z,17.72
2017-03-31T08:44:45.744Z,17.76
2017-03-31T08:45:57.961Z,17.84
2017-03-31T08:47:10.203Z,17.84
2017-03-31T08:48:22.738Z,17.86
2017-03-31T08:49:35.282Z,17.87
2017-03-31T08:50:47.853Z,17.9
2017-03-31T08:51:59.788Z,17.93
2017-03-31T08:53:12.065Z,18.03
2017-03-31T08:54:24.310Z,18.02
2017-03-31T08:55:36.553Z,18.16
2017-03-31T08:56:48.829Z,18.19
2017-03-31T08:58:01.378Z,18.23
2017-03-31T08:59:13.926Z,18.28
2017-03-31T09:00:26.470Z,18.31
2017-03-31T09:01:39.262Z,18.39
2017-03-31T09:02:51.525Z,18.46
2017-03-31T09:04:02.879Z,18.53
2017-03-31T09:05:15.424Z,18.67
2017-03-31T09:06:27.970Z,18.66
2017-03-31T09:07:40.522Z,18.79
2017-03-31T09:08:53.038Z,18.91
2017-03-31T09:10:05.600Z,18.81
2017-03-31T09:11:18.146Z,18.83
2017-03-31T09:12:30.678Z,18.96
2017-03-31T09:13:43.221Z,19.01
2017-03-31T09:14:55.488Z,19.11
2017-03-31T09:16:08.044Z,19.16
2017-03-31T09:17:20.560Z,19.17
2017-03-31T09:18:32.812Z,19.22
2017-03-31T09:19:44.754Z,19.2
2017-03-31T09:20:56.717Z,19.24
2017-03-31T09:22:09.292Z,19.37
2017-03-31T09:23:21.534Z,19.38
2017-03-31T09:24:33.755Z,19.39
2017-03-31T09:25:46.030Z,19.55
2017-03-31T09:26:58.579Z,19.55
2017-03-31T09:28:10.842Z,19.64
2017-03-31T09:29:23.396Z,19.66
2017-03-31T09:30:35.964Z,19.74
2017-03-31T09:31:48.213Z,19.84
2017-03-31T09:33:00.456Z,19.75
2017-03-31T09:34:12.999Z,19.94
2017-03-31T09:35:25.240Z,19.97
2017-03-31T09:36:37.796Z,20.03
2017-03-31T09:37:50.013Z,20.02
2017-03-31T09:39:02.511Z,20.14
2017-03-31T09:40:15.073Z,20.19
2017-03-31T09:41:27.625Z,20.26
2017-03-31T09:42:40.148Z,20.24
2017-03-31T09:43:52.661Z,20.27
2017-03-31T09:45:05.211Z,20.39
2017-03-31T09:46:17.807Z,20.44
2017-03-31T09:47:30.332Z,20.46
2017-03-31T09:48:42.870Z,20.5
2017-03-31T09:49:55.149Z,20.55
2017-03-31T09:51:07.670Z,20.53
2017-03-31T09:52:20.215Z,20.55
2017-03-31T09:53:32.441Z,20.59
2017-03-31T09:54:44.707Z,20.6
2017-03-31T09:55:57.258Z,20.63
2017-03-31T09:57:09.803Z,20.7
2017-03-31T09:58:22.066Z,20.7
2017-03-31T09:59:34.011Z,20.78
2017-03-31T10:00:46.266Z,20.78
2017-03-31T10:01:58.212Z,20.88
2017-03-31T10:03:10.754Z,20.85
2017-03-31T10:04:23.300Z,20.9
2017-03-31T10:05:35.520Z,20.92
2017-03-31T10:06:47.741Z,20.93
2017-03-31T10:07:59.980Z,20.89
2017-03-31T10:09:12.226Z,21.05
2017-03-31T10:10:24.797Z,21.03
2017-03-31T10:11:37.001Z,21.22
2017-03-31T10:12:49.518Z,21.19
2017-03-31T10:14:02.110Z,21.22
2017-03-31T10:15:14.656Z,21.19
2017-03-31T10:16:27.205Z,21.37
2017-03-31T10:17:39.772Z,21.3
2017-03-31T10:18:52.023Z,21.4
2017-03-31T10:20:04.567Z,21.48
2017-03-31T10:21:16.827Z,21.54
2017-03-31T10:22:29.385Z,21.59
2017-03-31T10:23:41.930Z,21.53
2017-03-31T10:24:54.476Z,21.56
2017-03-31T10:26:06.424Z,21.6
2017-03-31T10:27:18.675Z,21.65
2017-03-31T10:28:30.318Z,21.77
2017-03-31T10:29:42.261Z,21.91
2017-03-31T10:30:54.514Z,21.89
2017-03-31T10:32:07.056Z,22.01
2017-03-31T10:33:19.294Z,22.01
2017-03-31T10:34:31.854Z,22.06
2017-03-31T10:35:44.394Z,22.06
2017-03-31T10:36:56.918Z,22.12
2017-03-31T10:38:09.478Z,22.15
2017-03-31T10:39:22.023Z,22.3
2017-03-31T10:40:33.977Z,22.25
2017-03-31T10:41:46.553Z,22.37
2017-03-31T10:42:59.098Z,22.31
2017-03-31T10:44:11.658Z,22.34
2017-03-31T10:45:24.227Z,22.44
2017-03-31T10:46:36.778Z,22.49
2017-03-31T10:47:49.045Z,22.47
2017-03-31T10:49:01.592Z,22.51
2017-03-31T10:50:14.112Z,22.49
2017-03-31T10:51:26.361Z,22.61
2017-03-31T10:52:38.604Z,22.56
2017-03-31T10:53:51.132Z,22.61
2017-03-31T10:55:03.649Z,22.67
2017-03-31T10:56:16.191Z,22.67
2017-03-31T10:57:28.136Z,22.81
2017-03-31T10:58:40.369Z,22.81
2017-03-31T10:59:52.615Z,22.95
2017-03-31T11:01:04.563Z,22.93
2017-03-31T11:02:17.082Z,23.02
2017-03-31T11:03:29.327Z,22.98
2017-03-31T11:04:41.887Z,23.02
2017-03-31T11:05:54.138Z,23.21
2017-03-31T11:07:06.666Z,23.2
2017-03-31T11:08:19.229Z,23.2
2017-03-31T11:09:31.796Z,23.32
2017-03-31T11:10:44.347Z,23.4
2017-03-31T11:11:56.588Z,23.34
2017-03-31T11:13:08.846Z,23.4
2017-03-31T11:14:21.080Z,23.42
2017-03-31T11:15:33.312Z,23.44
2017-03-31T11:16:45.255Z,23.51
2017-03-31T11:17:57.797Z,23.45
2017-03-31T11:19:10.324Z,23.54
2017-03-31T11:20:22.859Z,23.48
2017-03-31T11:21:35.442Z,23.51
2017-03-31T11:22:48.005Z,23.54
2017-03-31T11:24:00.250Z,23.52
2017-03-31T11:25:12.826Z,23.59
2017-03-31T11:26:25.371Z,23.62
2017-03-31T11:27:37.888Z,23.64
2017-03-31T11:28:50.439Z,23.67
2017-03-31T11:30:02.693Z,23.7
2017-03-31T11:31:15.260Z,23.67
2017-03-31T11:32:27.478Z,23.73
2017-03-31T11:33:40.017Z,23.62
2017-03-31T11:34:51.668Z,23.59
2017-03-31T11:36:04.235Z,23.67
2017-03-31T11:37:16.485Z,23.69
2017-03-31T11:38:29.256Z,23.7
2017-03-31T11:39:41.823Z,23.79
2017-03-31T11:40:54.376Z,23.77
2017-03-31T11:42:06.672Z,23.71
2017-03-31T11:43:18.610Z,23.71
2017-03-31T11:44:30.864Z,23.76
2017-03-31T11:45:43.402Z,23.76
2017-03-31T11:46:55.649Z,23.73
2017-03-31T11:48:08.169Z,23.77
2017-03-31T11:49:20.426Z,23.74
2017-03-31T11:50:32.719Z,23.81
2017-03-31T11:51:45.283Z,23.79
2017-03-31T11:52:57.225Z,23.77
2017-03-31T11:54:09.496Z,23.81
2017-03-31T11:55:22.025Z,23.82
2017-03-31T11:56:34.266Z,23.82
2017-03-31T11:57:46.808Z,23.77
2017-03-31T11:58:59.054Z,23.81
2017-03-31T12:00:11.610Z,23.76
2017-03-31T12:01:23.897Z,23.81
2017-03-31T12:02:36.127Z,23.79
2017-03-31T12:03:48.395Z,23.85
2017-03-31T12:05:00.944Z,23.82
2017-03-31T12:06:13.212Z,23.81
2017-03-31T12:07:25.757Z,23.84
2017-03-31T12:08:37.975Z,23.82
2017-03-31T12:09:50.503Z,23.81
2017-03-31T12:11:02.149Z,23.76
2017-03-31T12:12:14.708Z,23.77
2017-03-31T12:13:26.658Z,23.73
2017-03-31T12:14:38.883Z,23.77
2017-03-31T12:15:51.133Z,23.73
2017-03-31T12:17:03.083Z,23.73
2017-03-31T12:18:15.642Z,23.76
2017-03-31T12:19:27.891Z,23.76
2017-03-31T12:20:39.858Z,23.74
2017-03-31T12:21:52.105Z,23.69
2017-03-31T12:23:04.347Z,23.7
2017-03-31T12:24:16.899Z,23.76
2017-03-31T12:25:28.547Z,23.64
2017-03-31T12:26:41.068Z,23.66
2017-03-31T12:27:53.288Z,23.66
2017-03-31T12:29:05.812Z,23.73
2017-03-31T12:30:18.057Z,23.7
2017-03-31T12:31:30.277Z,23.77
2017-03-31T12:32:42.571Z,23.63
2017-03-31T12:33:54.795Z,23.7
2017-03-31T12:35:06.438Z,23.69
2017-03-31T12:36:18.404Z,23.74
2017-03-31T12:37:30.358Z,23.76
2017-03-31T12:38:42.893Z,23.81
2017-03-31T12:39:55.450Z,23.82
2017-03-31T12:41:07.689Z,23.81
2017-03-31T12:42:19.932Z,23.86
2017-03-31T12:43:31.580Z,23.82
2017-03-31T12:44:44.127Z,23.86
2017-03-31T12:45:56.626Z,23.77
2017-03-31T12:47:08.873Z,23.79
2017-03-31T12:48:20.474Z,23.86
2017-03-31T12:49:33.007Z,23.92
2017-03-31T12:50:45.537Z,23.84
2017-03-31T12:51:58.085Z,23.99
2017-03-31T12:53:10.623Z,23.92
2017-03-31T12:54:22.898Z,23.91
2017-03-31T12:55:35.116Z,23.91
2017-03-31T12:56:47.667Z,23.99
2017-03-31T12:58:00.182Z,24.07
2017-03-31T12:59:12.449Z,24.06
2017-03-31T13:00:25.030Z,24.07
2017-03-31T13:01:37.241Z,24.1
2017-03-31T13:02:49.790Z,24.11
2017-03-31T13:04:01.759Z,24.16
2017-03-31T13:05:14.337Z,24.09
2017-03-31T13:06:26.561Z,24.1
2017-03-31T13:07:39.121Z,24.18
2017-03-31T13:08:51.342Z,24.14
2017-03-31T13:10:03.871Z,24.22
2017-03-31T13:11:16.094Z,24.16
2017-03-31T13:12:28.638Z,24.11
2017-03-31T13:13:41.183Z,24.19
2017-03-31T13:14:53.429Z,24.18
2017-03-31T13:16:05.969Z,24.19
2017-03-31T13:17:18.213Z,24.09
2017-03-31T13:18:30.774Z,24.18
2017-03-31T13:19:43.319Z,24.14
2017-03-31T13:20:55.584Z,24.11
2017-03-31T13:22:07.498Z,24.1
2017-03-31T13:23:19.428Z,24.14
2017-03-31T13:24:31.670Z,24.18
2017-03-31T13:25:43.917Z,24.18
2017-03-31T13:26:56.164Z,24.14
2017-03-31T13:28:08.705Z,24.24
2017-03-31T13:29:21.272Z,24.21
2017-03-31T13:30:33.523Z,24.24
2017-03-31T13:31:46.051Z,24.26
2017-03-31T13:32:58.592Z,24.22
2017-03-31T13:34:10.839Z,24.22
2017-03-31T13:35:23.360Z,24.29
2017-03-31T13:36:35.286Z,24.26
2017-03-31T13:37:48.100Z,24.38
2017-03-31T13:39:00.343Z,24.4
2017-03-31T13:40:12.289Z,24.41
2017-03-31T13:41:24.544Z,24.46
2017-03-31T13:42:37.085Z,24.48
2017-03-31T13:43:49.634Z,24.44
2017-03-31T13:45:02.156Z,24.44
2017-03-31T13:46:14.714Z,24.47
2017-03-31T13:47:27.260Z,24.48
2017-03-31T13:48:39.514Z,24.43
2017-03-31T13:49:51.756Z,24.43
2017-03-31T13:51:04.002Z,24.43
2017-03-31T13:52:16.544Z,24.44
2017-03-31T13:53:29.115Z,24.46
2017-03-31T13:54:41.361Z,24.47
2017-03-31T13:55:53.919Z,24.44
2017-03-31T13:57:06.486Z,24.47
2017-03-31T13:58:19.027Z,24.47
2017-03-31T13:59:31.577Z,24.41
2017-03-31T14:00:43.823Z,24.4
2017-03-31T14:01:56.345Z,24.32
2017-03-31T14:03:08.869Z,24.28
2017-03-31T14:04:21.412Z,24.24
2017-03-31T14:05:33.633Z,24.22
2017-03-31T14:06:46.174Z,24.21
2017-03-31T14:07:58.699Z,24.24
2017-03-31T14:09:10.622Z,24.16
2017-03-31T14:10:22.542Z,24.14
2017-03-31T14:11:34.769Z,24.1
2017-03-31T14:12:47.333Z,24.14
2017-03-31T14:13:59.600Z,24.14
2017-03-31T14:15:12.168Z,24.11
2017-03-31T14:16:24.738Z,24.1
2017-03-31T14:17:37.261Z,24.11
2017-03-31T14:18:49.791Z,24.03
2017-03-31T14:20:02.359Z,24.07
2017-03-31T14:21:14.897Z,24.03
2017-03-31T14:22:27.450Z,24.06
2017-03-31T14:23:39.992Z,24.13
2017-03-31T14:24:52.586Z,24.04
2017-03-31T14:26:04.216Z,24.04
2017-03-31T14:27:16.753Z,24
2017-03-31T14:28:29.301Z,24.04
2017-03-31T14:29:41.546Z,24
2017-03-31T14:30:54.101Z,23.91
2017-03-31T14:32:06.670Z,23.91
2017-03-31T14:33:18.589Z,23.99
2017-03-31T14:34:31.126Z,23.82
2017-03-31T14:35:43.097Z,23.89
2017-03-31T14:36:55.372Z,23.88
2017-03-31T14:38:07.922Z,23.79
2017-03-31T14:39:20.471Z,23.84
2017-03-31T14:40:33.056Z,23.81
2017-03-31T14:41:45.589Z,23.77
2017-03-31T14:42:57.848Z,23.84
2017-03-31T14:44:10.394Z,23.84
2017-03-31T14:45:22.918Z,23.82
2017-03-31T14:46:35.487Z,23.74
2017-03-31T14:47:47.736Z,23.76
2017-03-31T14:49:00.452Z,23.69
2017-03-31T14:50:12.699Z,23.63
2017-03-31T14:51:24.932Z,23.67
2017-03-31T14:52:37.451Z,23.63
2017-03-31T14:53:49.715Z,23.66
2017-03-31T14:55:02.243Z,23.67
2017-03-31T14:56:14.507Z,23.55
2017-03-31T14:57:27.077Z,23.59
2017-03-31T14:58:39.002Z,23.59
2017-03-31T14:59:51.275Z,23.49
2017-03-31T15:01:03.869Z,23.51
2017-03-31T15:02:16.136Z,23.48
2017-03-31T15:03:28.361Z,23.52
2017-03-31T15:04:40.924Z,23.52
2017-03-31T15:05:53.474Z,23.47
2017-03-31T15:07:06.049Z,23.48
2017-03-31T15:08:18.612Z,23.47
2017-03-31T15:09:31.159Z,23.54
2017-03-31T15:10:43.408Z,23.55
2017-03-31T15:11:55.958Z,23.51
2017-03-31T15:13:08.224Z,23.48
2017-03-31T15:14:20.724Z,23.45
2017-03-31T15:15:32.945Z,23.45
2017-03-31T15:16:45.192Z,23.45
2017-03-31T15:17:57.704Z,23.51
2017-03-31T15:19:10.214Z,23.44
2017-03-31T15:20:22.771Z,23.47
2017-03-31T15:21:35.319Z,23.44
2017-03-31T15:22:47.574Z,23.39
2017-03-31T15:23:59.837Z,23.42
2017-03-31T15:25:12.083Z,23.37
2017-03-31T15:26:24.666Z,23.39
2017-03-31T15:27:37.197Z,23.45
2017-03-31T15:28:49.446Z,23.4
2017-03-31T15:30:01.993Z,23.4
2017-03-31T15:31:14.260Z,23.47
2017-03-31T15:32:26.834Z,23.44
2017-03-31T15:33:39.379Z,23.45
2017-03-31T15:34:51.947Z,23.34
2017-03-31T15:36:04.176Z,23.4
2017-03-31T15:37:16.714Z,23.33
2017-03-31T15:38:29.294Z,23.39
2017-03-31T15:39:41.831Z,23.32
2017-03-31T15:40:54.390Z,23.25
2017-03-31T15:42:06.055Z,23.2
2017-03-31T15:43:18.271Z,23.21
2017-03-31T15:44:30.496Z,23.2
2017-03-31T15:45:42.739Z,23.26
2017-03-31T15:46:55.289Z,23.2